sensor_id;sensor_type;location;lat;lon;timestamp;P1;durP1;ratioP1;P2;durP2;ratioP2
9056;SDS011;4563;54.756;9.400;2023-03-01T00:01:54;5.43;;;4.03;;
9056;SDS011;4563;54.756;9.400;2023-03-01T00:04:21;6.33;;;4.60;;
9056;SDS011;4563;54.756;9.400;2023-03-01T00:06:48;7.63;;;4.70;;
9056;SDS011;4563;54.756;9.400;2023-03-01T00:09:16;9.47;;;4.73;;
9056;SDS011;4563;54.756;9.400;2023-03-01T00:11:43;8.67;;;4.63;;
9056;SDS011;4563;54.756;9.400;2023-03-01T00:14:10;5.00;;;4.20;;
9056;SDS011;4563;54.756;9.400;2023-03-01T00:16:38;5.90;;;3.90;;
9056;SDS011;4563;54.756;9.400;2023-03-01T00:19:07;4.07;;;3.77;;
9056;SDS011;4563;54.756;9.400;2023-03-01T00:21:37;8.33;;;4.20;;
9056;SDS011;4563;54.756;9.400;2023-03-01T00:24:04;7.63;;;3.40;;
9056;SDS011;4563;54.756;9.400;2023-03-01T00:26:32;21.00;;;4.33;;
9056;SDS011;4563;54.756;9.400;2023-03-01T00:28:59;17.07;;;3.53;;
9056;SDS011;4563;54.756;9.400;2023-03-01T00:31:27;2.90;;;2.70;;
9056;SDS011;4563;54.756;9.400;2023-03-01T00:33:57;22.57;;;2.83;;
9056;SDS011;4563;54.756;9.400;2023-03-01T00:36:27;9.83;;;2.70;;
9056;SDS011;4563;54.756;9.400;2023-03-01T00:38:55;3.07;;;2.77;;
9056;SDS011;4563;54.756;9.400;2023-03-01T00:41:22;9.23;;;3.50;;
9056;SDS011;4563;54.756;9.400;2023-03-01T00:43:53;13.83;;;3.43;;
9056;SDS011;4563;54.756;9.400;2023-03-01T00:46:20;8.67;;;2.70;;
9056;SDS011;4563;54.756;9.400;2023-03-01T00:48:48;11.63;;;3.40;;
9056;SDS011;4563;54.756;9.400;2023-03-01T00:51:16;6.97;;;3.03;;
9056;SDS011;4563;54.756;9.400;2023-03-01T00:53:45;5.53;;;2.43;;
9056;SDS011;4563;54.756;9.400;2023-03-01T00:56:13;5.50;;;3.13;;
9056;SDS011;4563;54.756;9.400;2023-03-01T00:58:41;12.10;;;4.00;;
9056;SDS011;4563;54.756;9.400;2023-03-01T01:01:09;12.97;;;4.17;;
9056;SDS011;4563;54.756;9.400;2023-03-01T01:03:42;6.00;;;3.73;;
9056;SDS011;4563;54.756;9.400;2023-03-01T01:06:12;9.77;;;3.40;;
9056;SDS011;4563;54.756;9.400;2023-03-01T01:08:40;10.77;;;4.00;;
9056;SDS011;4563;54.756;9.400;2023-03-01T01:11:08;6.60;;;3.87;;
9056;SDS011;4563;54.756;9.400;2023-03-01T01:13:35;13.17;;;3.27;;
9056;SDS011;4563;54.756;9.400;2023-03-01T01:16:03;3.60;;;3.40;;
9056;SDS011;4563;54.756;9.400;2023-03-01T01:18:31;10.60;;;3.90;;
9056;SDS011;4563;54.756;9.400;2023-03-01T01:21:03;3.77;;;3.47;;
9056;SDS011;4563;54.756;9.400;2023-03-01T01:23:31;9.07;;;3.43;;
9056;SDS011;4563;54.756;9.400;2023-03-01T01:26:02;3.23;;;3.03;;
9056;SDS011;4563;54.756;9.400;2023-03-01T01:28:31;8.37;;;3.10;;
9056;SDS011;4563;54.756;9.400;2023-03-01T01:30:58;7.07;;;3.77;;
9056;SDS011;4563;54.756;9.400;2023-03-01T01:33:25;3.77;;;3.50;;
9056;SDS011;4563;54.756;9.400;2023-03-01T01:35:53;13.57;;;3.90;;
9056;SDS011;4563;54.756;9.400;2023-03-01T01:38:20;9.40;;;3.47;;
9056;SDS011;4563;54.756;9.400;2023-03-01T01:40:47;8.33;;;3.30;;
9056;SDS011;4563;54.756;9.400;2023-03-01T01:43:17;3.73;;;2.93;;
9056;SDS011;4563;54.756;9.400;2023-03-01T01:45:46;19.93;;;3.20;;
9056;SDS011;4563;54.756;9.400;2023-03-01T01:48:14;7.90;;;3.33;;
9056;SDS011;4563;54.756;9.400;2023-03-01T01:50:45;5.83;;;2.83;;
9056;SDS011;4563;54.756;9.400;2023-03-01T01:53:16;8.97;;;3.70;;
9056;SDS011;4563;54.756;9.400;2023-03-01T01:55:47;9.03;;;3.10;;
9056;SDS011;4563;54.756;9.400;2023-03-01T01:58:17;7.03;;;3.60;;
9056;SDS011;4563;54.756;9.400;2023-03-01T02:00:47;3.80;;;3.50;;
9056;SDS011;4563;54.756;9.400;2023-03-01T02:03:14;6.13;;;3.67;;
9056;SDS011;4563;54.756;9.400;2023-03-01T02:05:45;3.33;;;3.07;;
9056;SDS011;4563;54.756;9.400;2023-03-01T02:08:19;2.80;;;2.60;;
9056;SDS011;4563;54.756;9.400;2023-03-01T02:10:47;17.63;;;3.50;;
9056;SDS011;4563;54.756;9.400;2023-03-01T02:13:17;8.17;;;2.83;;
9056;SDS011;4563;54.756;9.400;2023-03-01T02:15:43;5.10;;;2.97;;
9056;SDS011;4563;54.756;9.400;2023-03-01T02:18:11;4.17;;;2.77;;
9056;SDS011;4563;54.756;9.400;2023-03-01T02:20:43;3.70;;;2.47;;
9056;SDS011;4563;54.756;9.400;2023-03-01T02:23:17;5.00;;;2.77;;
9056;SDS011;4563;54.756;9.400;2023-03-01T02:25:48;7.77;;;2.90;;
9056;SDS011;4563;54.756;9.400;2023-03-01T02:28:24;6.23;;;2.97;;
9056;SDS011;4563;54.756;9.400;2023-03-01T02:30:58;3.03;;;2.77;;
9056;SDS011;4563;54.756;9.400;2023-03-01T02:33:42;2.80;;;2.60;;
9056;SDS011;4563;54.756;9.400;2023-03-01T02:36:14;6.13;;;2.83;;
9056;SDS011;4563;54.756;9.400;2023-03-01T02:38:44;6.83;;;2.77;;
9056;SDS011;4563;54.756;9.400;2023-03-01T02:41:13;12.90;;;3.23;;
9056;SDS011;4563;54.756;9.400;2023-03-01T02:43:44;6.77;;;2.73;;
9056;SDS011;4563;54.756;9.400;2023-03-01T02:46:14;5.00;;;2.80;;
9056;SDS011;4563;54.756;9.400;2023-03-01T02:48:44;6.53;;;2.97;;
9056;SDS011;4563;54.756;9.400;2023-03-01T02:51:17;8.17;;;3.10;;
9056;SDS011;4563;54.756;9.400;2023-03-01T02:53:55;7.93;;;2.83;;
9056;SDS011;4563;54.756;9.400;2023-03-01T02:56:34;13.37;;;2.93;;
9056;SDS011;4563;54.756;9.400;2023-03-01T02:59:02;9.87;;;3.30;;
9056;SDS011;4563;54.756;9.400;2023-03-01T03:01:30;5.00;;;2.97;;
9056;SDS011;4563;54.756;9.400;2023-03-01T03:04:03;4.17;;;3.10;;
9056;SDS011;4563;54.756;9.400;2023-03-01T03:06:30;6.90;;;3.30;;
9056;SDS011;4563;54.756;9.400;2023-03-01T03:08:57;6.37;;;3.30;;
9056;SDS011;4563;54.756;9.400;2023-03-01T03:11:25;5.47;;;3.17;;
9056;SDS011;4563;54.756;9.400;2023-03-01T03:13:51;8.87;;;3.77;;
9056;SDS011;4563;54.756;9.400;2023-03-01T03:16:20;9.93;;;3.57;;
9056;SDS011;4563;54.756;9.400;2023-03-01T03:18:47;17.07;;;3.13;;
9056;SDS011;4563;54.756;9.400;2023-03-01T03:21:14;3.40;;;3.10;;
9056;SDS011;4563;54.756;9.400;2023-03-01T03:23:42;5.77;;;3.63;;
9056;SDS011;4563;54.756;9.400;2023-03-01T03:26:09;3.53;;;3.33;;
9056;SDS011;4563;54.756;9.400;2023-03-01T03:28:38;2.93;;;2.73;;
9056;SDS011;4563;54.756;9.400;2023-03-01T03:31:06;3.07;;;2.87;;
9056;SDS011;4563;54.756;9.400;2023-03-01T03:33:34;7.27;;;2.87;;
9056;SDS011;4563;54.756;9.400;2023-03-01T03:36:01;3.87;;;2.60;;
9056;SDS011;4563;54.756;9.400;2023-03-01T03:38:29;3.00;;;2.80;;
9056;SDS011;4563;54.756;9.400;2023-03-01T03:40:59;5.17;;;2.63;;
9056;SDS011;4563;54.756;9.400;2023-03-01T03:43:28;9.03;;;2.87;;
9056;SDS011;4563;54.756;9.400;2023-03-01T03:45:56;6.73;;;2.80;;
9056;SDS011;4563;54.756;9.400;2023-03-01T03:48:24;9.47;;;2.97;;
9056;SDS011;4563;54.756;9.400;2023-03-01T03:50:53;3.27;;;2.93;;
9056;SDS011;4563;54.756;9.400;2023-03-01T03:53:21;4.77;;;2.77;;
9056;SDS011;4563;54.756;9.400;2023-03-01T03:55:51;4.10;;;2.77;;
9056;SDS011;4563;54.756;9.400;2023-03-01T03:58:19;2.40;;;2.23;;
9056;SDS011;4563;54.756;9.400;2023-03-01T04:00:48;8.97;;;2.90;;
9056;SDS011;4563;54.756;9.400;2023-03-01T04:03:19;5.03;;;3.23;;
9056;SDS011;4563;54.756;9.400;2023-03-01T04:05:47;2.40;;;2.20;;
9056;SDS011;4563;54.756;9.400;2023-03-01T04:08:16;2.67;;;2.30;;
9056;SDS011;4563;54.756;9.400;2023-03-01T04:10:45;2.67;;;2.47;;
9056;SDS011;4563;54.756;9.400;2023-03-01T04:13:16;2.30;;;2.20;;
9056;SDS011;4563;54.756;9.400;2023-03-01T04:15:45;2.80;;;1.93;;
9056;SDS011;4563;54.756;9.400;2023-03-01T04:18:12;2.50;;;2.40;;
9056;SDS011;4563;54.756;9.400;2023-03-01T04:20:40;2.53;;;2.33;;
9056;SDS011;4563;54.756;9.400;2023-03-01T04:23:08;3.77;;;2.00;;
9056;SDS011;4563;54.756;9.400;2023-03-01T04:25:42;3.60;;;1.80;;
9056;SDS011;4563;54.756;9.400;2023-03-01T04:28:14;2.70;;;2.50;;
9056;SDS011;4563;54.756;9.400;2023-03-01T04:30:41;4.40;;;2.00;;
9056;SDS011;4563;54.756;9.400;2023-03-01T04:33:09;2.77;;;2.50;;
9056;SDS011;4563;54.756;9.400;2023-03-01T04:35:36;3.23;;;2.53;;
9056;SDS011;4563;54.756;9.400;2023-03-01T04:38:03;2.70;;;2.50;;
9056;SDS011;4563;54.756;9.400;2023-03-01T04:40:31;2.30;;;2.20;;
9056;SDS011;4563;54.756;9.400;2023-03-01T04:42:59;3.00;;;2.80;;
9056;SDS011;4563;54.756;9.400;2023-03-01T04:45:27;2.77;;;2.57;;
9056;SDS011;4563;54.756;9.400;2023-03-01T04:47:54;3.07;;;2.87;;
9056;SDS011;4563;54.756;9.400;2023-03-01T04:50:23;3.00;;;2.73;;
9056;SDS011;4563;54.756;9.400;2023-03-01T04:52:50;2.83;;;2.63;;
9056;SDS011;4563;54.756;9.400;2023-03-01T04:55:18;4.07;;;2.93;;
9056;SDS011;4563;54.756;9.400;2023-03-01T04:57:45;4.03;;;3.10;;
9056;SDS011;4563;54.756;9.400;2023-03-01T05:00:14;3.50;;;3.20;;
9056;SDS011;4563;54.756;9.400;2023-03-01T05:02:47;4.90;;;3.13;;
9056;SDS011;4563;54.756;9.400;2023-03-01T05:05:18;3.30;;;2.93;;
9056;SDS011;4563;54.756;9.400;2023-03-01T05:07:50;4.00;;;2.93;;
9056;SDS011;4563;54.756;9.400;2023-03-01T05:10:18;4.47;;;2.83;;
9056;SDS011;4563;54.756;9.400;2023-03-01T05:12:45;2.83;;;2.63;;
9056;SDS011;4563;54.756;9.400;2023-03-01T05:15:14;8.10;;;2.53;;
9056;SDS011;4563;54.756;9.400;2023-03-01T05:17:41;2.20;;;2.10;;
9056;SDS011;4563;54.756;9.400;2023-03-01T05:20:08;1.87;;;1.70;;
9056;SDS011;4563;54.756;9.400;2023-03-01T05:22:36;3.97;;;2.87;;
9056;SDS011;4563;54.756;9.400;2023-03-01T05:25:03;6.03;;;2.07;;
9056;SDS011;4563;54.756;9.400;2023-03-01T05:27:32;8.30;;;1.30;;
9056;SDS011;4563;54.756;9.400;2023-03-01T05:29:58;1.23;;;1.23;;
9056;SDS011;4563;54.756;9.400;2023-03-01T05:32:39;6.73;;;1.23;;
9056;SDS011;4563;54.756;9.400;2023-03-01T05:35:08;1.57;;;1.13;;
9056;SDS011;4563;54.756;9.400;2023-03-01T05:37:38;13.70;;;1.20;;
9056;SDS011;4563;54.756;9.400;2023-03-01T05:40:06;1.30;;;1.20;;
9056;SDS011;4563;54.756;9.400;2023-03-01T05:42:40;5.70;;;1.37;;
9056;SDS011;4563;54.756;9.400;2023-03-01T05:45:08;3.20;;;1.50;;
9056;SDS011;4563;54.756;9.400;2023-03-01T05:47:37;6.70;;;2.33;;
9056;SDS011;4563;54.756;9.400;2023-03-01T05:50:10;3.43;;;1.50;;
9056;SDS011;4563;54.756;9.400;2023-03-01T05:52:37;3.87;;;1.90;;
9056;SDS011;4563;54.756;9.400;2023-03-01T05:55:05;1.87;;;1.63;;
9056;SDS011;4563;54.756;9.400;2023-03-01T05:57:32;3.33;;;1.50;;
9056;SDS011;4563;54.756;9.400;2023-03-01T05:59:59;1.73;;;1.63;;
9056;SDS011;4563;54.756;9.400;2023-03-01T06:02:25;7.80;;;1.50;;
9056;SDS011;4563;54.756;9.400;2023-03-01T06:04:55;4.70;;;1.70;;
9056;SDS011;4563;54.756;9.400;2023-03-01T06:07:22;6.97;;;1.77;;
9056;SDS011;4563;54.756;9.400;2023-03-01T06:09:49;10.03;;;1.80;;
9056;SDS011;4563;54.756;9.400;2023-03-01T06:12:16;2.40;;;1.40;;
9056;SDS011;4563;54.756;9.400;2023-03-01T06:14:44;1.60;;;1.43;;
9056;SDS011;4563;54.756;9.400;2023-03-01T06:17:12;2.00;;;1.90;;
9056;SDS011;4563;54.756;9.400;2023-03-01T06:19:39;6.87;;;2.07;;
9056;SDS011;4563;54.756;9.400;2023-03-01T06:22:07;3.50;;;1.90;;
9056;SDS011;4563;54.756;9.400;2023-03-01T06:24:34;2.00;;;1.90;;
9056;SDS011;4563;54.756;9.400;2023-03-01T06:27:01;2.97;;;2.20;;
9056;SDS011;4563;54.756;9.400;2023-03-01T06:29:28;4.80;;;1.40;;
9056;SDS011;4563;54.756;9.400;2023-03-01T06:31:54;1.67;;;1.57;;
9056;SDS011;4563;54.756;9.400;2023-03-01T06:34:21;1.60;;;0.90;;
9056;SDS011;4563;54.756;9.400;2023-03-01T06:36:48;7.23;;;1.10;;
9056;SDS011;4563;54.756;9.400;2023-03-01T06:39:16;2.87;;;1.00;;
9056;SDS011;4563;54.756;9.400;2023-03-01T06:41:43;3.37;;;3.03;;
9056;SDS011;4563;54.756;9.400;2023-03-01T06:44:10;0.93;;;0.93;;
9056;SDS011;4563;54.756;9.400;2023-03-01T06:46:36;7.00;;;1.00;;
9056;SDS011;4563;54.756;9.400;2023-03-01T06:49:04;3.07;;;1.10;;
9056;SDS011;4563;54.756;9.400;2023-03-01T06:51:34;3.43;;;1.00;;
9056;SDS011;4563;54.756;9.400;2023-03-01T06:54:02;1.50;;;0.83;;
9056;SDS011;4563;54.756;9.400;2023-03-01T06:56:31;2.03;;;1.10;;
9056;SDS011;4563;54.756;9.400;2023-03-01T06:58:58;1.77;;;1.23;;
9056;SDS011;4563;54.756;9.400;2023-03-01T07:01:25;2.30;;;1.90;;
9056;SDS011;4563;54.756;9.400;2023-03-01T07:03:51;1.83;;;1.70;;
9056;SDS011;4563;54.756;9.400;2023-03-01T07:06:18;2.07;;;1.90;;
9056;SDS011;4563;54.756;9.400;2023-03-01T07:08:45;2.97;;;2.20;;
9056;SDS011;4563;54.756;9.400;2023-03-01T07:11:12;5.00;;;2.40;;
9056;SDS011;4563;54.756;9.400;2023-03-01T07:13:41;3.63;;;2.33;;
9056;SDS011;4563;54.756;9.400;2023-03-01T07:16:07;4.97;;;2.40;;
9056;SDS011;4563;54.756;9.400;2023-03-01T07:18:34;2.20;;;2.00;;
9056;SDS011;4563;54.756;9.400;2023-03-01T07:21:05;2.33;;;1.90;;
9056;SDS011;4563;54.756;9.400;2023-03-01T07:23:32;2.20;;;1.90;;
9056;SDS011;4563;54.756;9.400;2023-03-01T07:25:59;4.10;;;2.27;;
9056;SDS011;4563;54.756;9.400;2023-03-01T07:28:26;1.40;;;1.20;;
9056;SDS011;4563;54.756;9.400;2023-03-01T07:30:55;1.10;;;1.10;;
9056;SDS011;4563;54.756;9.400;2023-03-01T07:33:27;16.37;;;1.20;;
9056;SDS011;4563;54.756;9.400;2023-03-01T07:35:57;6.33;;;0.90;;
9056;SDS011;4563;54.756;9.400;2023-03-01T07:38:24;1.27;;;0.87;;
9056;SDS011;4563;54.756;9.400;2023-03-01T07:40:51;0.97;;;0.90;;
9056;SDS011;4563;54.756;9.400;2023-03-01T07:43:18;7.83;;;0.73;;
9056;SDS011;4563;54.756;9.400;2023-03-01T07:45:45;6.10;;;0.70;;
9056;SDS011;4563;54.756;9.400;2023-03-01T07:48:13;8.23;;;0.70;;
9056;SDS011;4563;54.756;9.400;2023-03-01T07:50:40;2.77;;;0.70;;
9056;SDS011;4563;54.756;9.400;2023-03-01T07:53:07;2.37;;;0.67;;
9056;SDS011;4563;54.756;9.400;2023-03-01T07:55:34;2.27;;;0.97;;
9056;SDS011;4563;54.756;9.400;2023-03-01T07:58:01;5.77;;;0.80;;
9056;SDS011;4563;54.756;9.400;2023-03-01T08:00:28;3.10;;;0.97;;
9056;SDS011;4563;54.756;9.400;2023-03-01T08:02:58;4.13;;;0.90;;
9056;SDS011;4563;54.756;9.400;2023-03-01T08:05:26;5.33;;;1.00;;
9056;SDS011;4563;54.756;9.400;2023-03-01T08:07:53;3.20;;;1.30;;
9056;SDS011;4563;54.756;9.400;2023-03-01T08:10:20;1.40;;;1.30;;
9056;SDS011;4563;54.756;9.400;2023-03-01T08:12:47;4.40;;;3.10;;
9056;SDS011;4563;54.756;9.400;2023-03-01T08:15:14;5.27;;;1.60;;
9056;SDS011;4563;54.756;9.400;2023-03-01T08:17:41;9.23;;;1.90;;
9056;SDS011;4563;54.756;9.400;2023-03-01T08:20:08;4.43;;;1.50;;
9056;SDS011;4563;54.756;9.400;2023-03-01T08:22:38;1.60;;;1.50;;
9056;SDS011;4563;54.756;9.400;2023-03-01T08:25:05;2.57;;;1.73;;
9056;SDS011;4563;54.756;9.400;2023-03-01T08:27:32;6.57;;;1.73;;
9056;SDS011;4563;54.756;9.400;2023-03-01T08:29:59;10.27;;;7.97;;
9056;SDS011;4563;54.756;9.400;2023-03-01T08:32:26;12.83;;;10.00;;
9056;SDS011;4563;54.756;9.400;2023-03-01T08:34:53;3.17;;;2.87;;
9056;SDS011;4563;54.756;9.400;2023-03-01T08:37:20;4.60;;;2.33;;
9056;SDS011;4563;54.756;9.400;2023-03-01T08:39:48;4.33;;;2.93;;
9056;SDS011;4563;54.756;9.400;2023-03-01T08:42:14;8.53;;;3.50;;
9056;SDS011;4563;54.756;9.400;2023-03-01T08:44:41;10.47;;;3.20;;
9056;SDS011;4563;54.756;9.400;2023-03-01T08:47:08;6.37;;;3.07;;
9056;SDS011;4563;54.756;9.400;2023-03-01T08:49:35;6.93;;;5.83;;
9056;SDS011;4563;54.756;9.400;2023-03-01T08:52:02;4.47;;;4.07;;
9056;SDS011;4563;54.756;9.400;2023-03-01T08:54:28;2.97;;;2.77;;
9056;SDS011;4563;54.756;9.400;2023-03-01T08:56:57;15.57;;;2.83;;
9056;SDS011;4563;54.756;9.400;2023-03-01T08:59:25;4.93;;;2.67;;
9056;SDS011;4563;54.756;9.400;2023-03-01T09:01:52;17.67;;;10.37;;
9056;SDS011;4563;54.756;9.400;2023-03-01T09:04:19;2.70;;;2.50;;
9056;SDS011;4563;54.756;9.400;2023-03-01T09:06:45;3.40;;;3.17;;
9056;SDS011;4563;54.756;9.400;2023-03-01T09:09:14;3.53;;;3.23;;
9056;SDS011;4563;54.756;9.400;2023-03-01T09:11:41;3.80;;;3.40;;
9056;SDS011;4563;54.756;9.400;2023-03-01T09:14:12;3.90;;;3.40;;
9056;SDS011;4563;54.756;9.400;2023-03-01T09:16:39;4.73;;;4.20;;
9056;SDS011;4563;54.756;9.400;2023-03-01T09:19:06;4.77;;;3.00;;
9056;SDS011;4563;54.756;9.400;2023-03-01T09:21:33;7.97;;;3.13;;
9056;SDS011;4563;54.756;9.400;2023-03-01T09:23:59;3.30;;;3.10;;
9056;SDS011;4563;54.756;9.400;2023-03-01T09:26:26;7.37;;;3.50;;
9056;SDS011;4563;54.756;9.400;2023-03-01T09:28:53;3.53;;;3.23;;
9056;SDS011;4563;54.756;9.400;2023-03-01T09:31:23;3.70;;;3.40;;
9056;SDS011;4563;54.756;9.400;2023-03-01T09:33:51;8.30;;;3.43;;
9056;SDS011;4563;54.756;9.400;2023-03-01T09:36:20;17.63;;;3.43;;
9056;SDS011;4563;54.756;9.400;2023-03-01T09:38:48;3.47;;;3.17;;
9056;SDS011;4563;54.756;9.400;2023-03-01T09:41:23;5.87;;;3.40;;
9056;SDS011;4563;54.756;9.400;2023-03-01T09:44:03;3.17;;;2.97;;
9056;SDS011;4563;54.756;9.400;2023-03-01T09:46:42;3.70;;;3.40;;
9056;SDS011;4563;54.756;9.400;2023-03-01T09:49:10;3.97;;;3.67;;
9056;SDS011;4563;54.756;9.400;2023-03-01T09:51:42;4.60;;;4.20;;
9056;SDS011;4563;54.756;9.400;2023-03-01T09:54:14;4.60;;;4.20;;
9056;SDS011;4563;54.756;9.400;2023-03-01T09:56:41;5.10;;;4.10;;
9056;SDS011;4563;54.756;9.400;2023-03-01T09:59:16;4.63;;;4.30;;
9056;SDS011;4563;54.756;9.400;2023-03-01T10:01:50;4.40;;;4.00;;
9056;SDS011;4563;54.756;9.400;2023-03-01T10:04:28;5.10;;;4.13;;
9056;SDS011;4563;54.756;9.400;2023-03-01T10:07:06;4.90;;;4.50;;
9056;SDS011;4563;54.756;9.400;2023-03-01T10:09:43;6.23;;;5.10;;
9056;SDS011;4563;54.756;9.400;2023-03-01T10:12:12;6.13;;;5.20;;
9056;SDS011;4563;54.756;9.400;2023-03-01T10:14:43;8.07;;;5.37;;
9056;SDS011;4563;54.756;9.400;2023-03-01T10:17:20;5.63;;;5.03;;
9056;SDS011;4563;54.756;9.400;2023-03-01T10:19:53;5.73;;;5.20;;
9056;SDS011;4563;54.756;9.400;2023-03-01T10:22:22;5.50;;;4.33;;
9056;SDS011;4563;54.756;9.400;2023-03-01T10:24:53;5.70;;;5.10;;
9056;SDS011;4563;54.756;9.400;2023-03-01T10:27:22;5.70;;;5.20;;
9056;SDS011;4563;54.756;9.400;2023-03-01T10:29:51;6.50;;;5.80;;
9056;SDS011;4563;54.756;9.400;2023-03-01T10:32:26;5.20;;;4.70;;
9056;SDS011;4563;54.756;9.400;2023-03-01T10:34:53;5.10;;;4.70;;
9056;SDS011;4563;54.756;9.400;2023-03-01T10:37:20;7.27;;;4.90;;
9056;SDS011;4563;54.756;9.400;2023-03-01T10:39:56;6.80;;;6.13;;
9056;SDS011;4563;54.756;9.400;2023-03-01T10:42:28;6.53;;;4.80;;
9056;SDS011;4563;54.756;9.400;2023-03-01T10:44:56;5.87;;;4.97;;
9056;SDS011;4563;54.756;9.400;2023-03-01T10:47:24;5.03;;;4.57;;
9056;SDS011;4563;54.756;9.400;2023-03-01T10:49:57;5.30;;;4.90;;
9056;SDS011;4563;54.756;9.400;2023-03-01T10:52:27;5.70;;;5.20;;
9056;SDS011;4563;54.756;9.400;2023-03-01T10:54:59;5.90;;;5.40;;
9056;SDS011;4563;54.756;9.400;2023-03-01T10:57:33;5.43;;;4.93;;
9056;SDS011;4563;54.756;9.400;2023-03-01T11:03:01;4.87;;;4.47;;
9056;SDS011;4563;54.756;9.400;2023-03-01T11:05:36;5.30;;;4.87;;
9056;SDS011;4563;54.756;9.400;2023-03-01T11:08:03;5.30;;;4.80;;
9056;SDS011;4563;54.756;9.400;2023-03-01T11:10:30;4.47;;;4.17;;
9056;SDS011;4563;54.756;9.400;2023-03-01T11:13:06;4.13;;;3.83;;
9056;SDS011;4563;54.756;9.400;2023-03-01T11:15:34;5.03;;;4.63;;
9056;SDS011;4563;54.756;9.400;2023-03-01T11:18:03;4.60;;;4.20;;
9056;SDS011;4563;54.756;9.400;2023-03-01T11:20:31;4.20;;;3.90;;
9056;SDS011;4563;54.756;9.400;2023-03-01T11:23:01;4.40;;;4.00;;
9056;SDS011;4563;54.756;9.400;2023-03-01T11:25:32;4.07;;;3.80;;
9056;SDS011;4563;54.756;9.400;2023-03-01T11:28:02;4.70;;;4.40;;
9056;SDS011;4563;54.756;9.400;2023-03-01T11:30:32;5.03;;;4.63;;
9056;SDS011;4563;54.756;9.400;2023-03-01T11:33:05;3.70;;;3.50;;
9056;SDS011;4563;54.756;9.400;2023-03-01T11:35:41;4.27;;;3.97;;
9056;SDS011;4563;54.756;9.400;2023-03-01T11:38:15;5.67;;;3.90;;
9056;SDS011;4563;54.756;9.400;2023-03-01T11:40:47;3.77;;;3.53;;
9056;SDS011;4563;54.756;9.400;2023-03-01T11:43:20;4.20;;;3.93;;
9056;SDS011;4563;54.756;9.400;2023-03-01T11:45:58;3.67;;;3.37;;
9056;SDS011;4563;54.756;9.400;2023-03-01T11:48:55;4.67;;;4.23;;
9056;SDS011;4563;54.756;9.400;2023-03-01T11:51:36;4.23;;;3.93;;
9056;SDS011;4563;54.756;9.400;2023-03-01T11:54:16;4.60;;;4.30;;
9056;SDS011;4563;54.756;9.400;2023-03-01T11:57:31;4.90;;;4.50;;
9056;SDS011;4563;54.756;9.400;2023-03-01T12:03:11;4.00;;;3.80;;
9056;SDS011;4563;54.756;9.400;2023-03-01T12:09:02;3.60;;;3.40;;
9056;SDS011;4563;54.756;9.400;2023-03-01T12:11:51;4.30;;;4.00;;
9056;SDS011;4563;54.756;9.400;2023-03-01T12:14:38;3.87;;;3.57;;
9056;SDS011;4563;54.756;9.400;2023-03-01T12:17:34;4.57;;;4.27;;
9056;SDS011;4563;54.756;9.400;2023-03-01T12:20:21;4.10;;;3.80;;
9056;SDS011;4563;54.756;9.400;2023-03-01T12:23:33;4.63;;;4.23;;
9056;SDS011;4563;54.756;9.400;2023-03-01T12:26:23;6.10;;;3.90;;
9056;SDS011;4563;54.756;9.400;2023-03-01T12:28:59;5.10;;;3.73;;
9056;SDS011;4563;54.756;9.400;2023-03-01T12:34:43;4.87;;;4.57;;
9056;SDS011;4563;54.756;9.400;2023-03-01T12:37:36;5.80;;;4.60;;
9056;SDS011;4563;54.756;9.400;2023-03-01T12:40:25;4.87;;;4.47;;
9056;SDS011;4563;54.756;9.400;2023-03-01T12:43:03;4.80;;;4.40;;
9056;SDS011;4563;54.756;9.400;2023-03-01T12:45:43;4.13;;;3.83;;
9056;SDS011;4563;54.756;9.400;2023-03-01T12:48:23;5.33;;;4.93;;
9056;SDS011;4563;54.756;9.400;2023-03-01T12:50:57;4.83;;;4.43;;
9056;SDS011;4563;54.756;9.400;2023-03-01T12:53:29;5.60;;;4.40;;
9056;SDS011;4563;54.756;9.400;2023-03-01T12:56:00;4.83;;;4.47;;
9056;SDS011;4563;54.756;9.400;2023-03-01T12:58:32;4.40;;;4.00;;
9056;SDS011;4563;54.756;9.400;2023-03-01T13:01:04;4.67;;;4.27;;
9056;SDS011;4563;54.756;9.400;2023-03-01T13:03:44;4.57;;;4.27;;
9056;SDS011;4563;54.756;9.400;2023-03-01T13:06:30;4.97;;;4.57;;
9056;SDS011;4563;54.756;9.400;2023-03-01T13:09:07;4.73;;;4.33;;
9056;SDS011;4563;54.756;9.400;2023-03-01T13:11:42;5.60;;;4.90;;
9056;SDS011;4563;54.756;9.400;2023-03-01T13:17:20;6.17;;;5.07;;
9056;SDS011;4563;54.756;9.400;2023-03-01T13:19:58;5.43;;;5.03;;
9056;SDS011;4563;54.756;9.400;2023-03-01T13:22:26;5.83;;;4.53;;
9056;SDS011;4563;54.756;9.400;2023-03-01T13:25:10;5.07;;;4.63;;
9056;SDS011;4563;54.756;9.400;2023-03-01T13:27:42;6.67;;;5.97;;
9056;SDS011;4563;54.756;9.400;2023-03-01T13:39:28;6.50;;;5.23;;
9056;SDS011;4563;54.756;9.400;2023-03-01T13:41:58;5.23;;;4.83;;
9056;SDS011;4563;54.756;9.400;2023-03-01T13:44:29;5.20;;;4.80;;
9056;SDS011;4563;54.756;9.400;2023-03-01T13:46:59;6.37;;;5.53;;
9056;SDS011;4563;54.756;9.400;2023-03-01T13:49:35;6.37;;;5.77;;
9056;SDS011;4563;54.756;9.400;2023-03-01T13:52:19;6.53;;;5.07;;
9056;SDS011;4563;54.756;9.400;2023-03-01T13:54:56;6.60;;;5.87;;
9056;SDS011;4563;54.756;9.400;2023-03-01T13:57:24;5.93;;;5.37;;
9056;SDS011;4563;54.756;9.400;2023-03-01T13:59:57;7.50;;;6.70;;
9056;SDS011;4563;54.756;9.400;2023-03-01T14:02:24;5.60;;;4.90;;
9056;SDS011;4563;54.756;9.400;2023-03-01T14:04:55;5.80;;;5.17;;
9056;SDS011;4563;54.756;9.400;2023-03-01T14:07:23;5.50;;;5.00;;
9056;SDS011;4563;54.756;9.400;2023-03-01T14:09:54;5.90;;;5.23;;
9056;SDS011;4563;54.756;9.400;2023-03-01T14:12:26;5.50;;;4.73;;
9056;SDS011;4563;54.756;9.400;2023-03-01T14:15:08;5.47;;;4.97;;
9056;SDS011;4563;54.756;9.400;2023-03-01T14:17:46;8.17;;;5.10;;
9056;SDS011;4563;54.756;9.400;2023-03-01T14:20:23;5.10;;;4.60;;
9056;SDS011;4563;54.756;9.400;2023-03-01T14:22:53;5.50;;;5.00;;
9056;SDS011;4563;54.756;9.400;2023-03-01T14:25:31;6.10;;;5.50;;
9056;SDS011;4563;54.756;9.400;2023-03-01T14:28:00;7.03;;;4.70;;
9056;SDS011;4563;54.756;9.400;2023-03-01T14:30:32;5.23;;;4.60;;
9056;SDS011;4563;54.756;9.400;2023-03-01T14:33:01;6.30;;;5.43;;
9056;SDS011;4563;54.756;9.400;2023-03-01T14:35:32;5.43;;;4.87;;
9056;SDS011;4563;54.756;9.400;2023-03-01T14:38:00;5.23;;;4.83;;
9056;SDS011;4563;54.756;9.400;2023-03-01T14:40:28;6.30;;;5.30;;
9056;SDS011;4563;54.756;9.400;2023-03-01T14:42:57;8.93;;;6.80;;
9056;SDS011;4563;54.756;9.400;2023-03-01T14:45:26;9.83;;;8.73;;
9056;SDS011;4563;54.756;9.400;2023-03-01T14:47:56;10.60;;;8.63;;
9056;SDS011;4563;54.756;9.400;2023-03-01T14:50:27;8.00;;;7.20;;
9056;SDS011;4563;54.756;9.400;2023-03-01T14:52:55;9.37;;;7.63;;
9056;SDS011;4563;54.756;9.400;2023-03-01T14:55:26;16.90;;;7.53;;
9056;SDS011;4563;54.756;9.400;2023-03-01T14:57:56;7.57;;;6.83;;
9056;SDS011;4563;54.756;9.400;2023-03-01T15:00:24;13.23;;;7.60;;
9056;SDS011;4563;54.756;9.400;2023-03-01T15:02:54;7.70;;;6.90;;
9056;SDS011;4563;54.756;9.400;2023-03-01T15:05:25;9.50;;;7.93;;
9056;SDS011;4563;54.756;9.400;2023-03-01T15:07:55;8.97;;;7.67;;
9056;SDS011;4563;54.756;9.400;2023-03-01T15:10:24;12.10;;;10.90;;
9056;SDS011;4563;54.756;9.400;2023-03-01T15:12:52;16.10;;;12.93;;
9056;SDS011;4563;54.756;9.400;2023-03-01T15:15:30;13.13;;;10.90;;
9056;SDS011;4563;54.756;9.400;2023-03-01T15:17:59;10.30;;;8.93;;
9056;SDS011;4563;54.756;9.400;2023-03-01T15:20:29;8.43;;;7.63;;
9056;SDS011;4563;54.756;9.400;2023-03-01T15:23:01;10.07;;;6.57;;
9056;SDS011;4563;54.756;9.400;2023-03-01T15:25:29;18.00;;;14.17;;
9056;SDS011;4563;54.756;9.400;2023-03-01T15:27:58;31.07;;;22.87;;
9056;SDS011;4563;54.756;9.400;2023-03-01T15:30:27;28.90;;;20.80;;
9056;SDS011;4563;54.756;9.400;2023-03-01T15:35:55;15.87;;;12.63;;
9056;SDS011;4563;54.756;9.400;2023-03-01T15:38:27;12.90;;;10.47;;
9056;SDS011;4563;54.756;9.400;2023-03-01T15:40:57;11.40;;;8.60;;
9056;SDS011;4563;54.756;9.400;2023-03-01T15:43:38;8.77;;;7.23;;
9056;SDS011;4563;54.756;9.400;2023-03-01T15:46:12;16.67;;;12.30;;
9056;SDS011;4563;54.756;9.400;2023-03-01T15:48:44;16.40;;;14.63;;
9056;SDS011;4563;54.756;9.400;2023-03-01T15:51:13;16.07;;;13.80;;
9056;SDS011;4563;54.756;9.400;2023-03-01T15:53:41;12.40;;;11.13;;
9056;SDS011;4563;54.756;9.400;2023-03-01T15:56:08;12.53;;;11.10;;
9056;SDS011;4563;54.756;9.400;2023-03-01T15:58:35;16.40;;;13.80;;
9056;SDS011;4563;54.756;9.400;2023-03-01T16:01:02;24.17;;;17.17;;